METAR Data
IDs: Format: Raw Decoded Include TAF

Data at: 0609 UTC 19 Aug 2019

PAEG 190553Z AUTO 00000KT 10SM SCT041 BKN048 OVC075 06/04 A3023 RMK AO2 SLP243 T00610039 10117 20061 56009 TSNO
PAEG 190453Z AUTO 00000KT 10SM SCT075 OVC100 08/03 A3024 RMK AO2 SLP245 T00780033 TSNO
PAEG 190353Z AUTO 27003KT 10SM OVC070 09/03 A3024 RMK AO2 SLP247 T00890028 TSNO
PAEG 190253Z AUTO 33005KT 10SM BKN055 OVC070 08/03 A3026 RMK AO2 SLP253 T00830028 56012 TSNO
PAEG 190153Z AUTO 34005KT 10SM OVC070 10/02 A3026 RMK AO2 SLP255 T01000017 TSNO
PAEG 190053Z AUTO 34007KT 10SM OVC070 11/00 A3027 RMK AO2 SLP258 T01060000 TSNO
PAEG 182353Z AUTO 34007KT 10SM FEW035 BKN070 11/01 A3029 RMK AO2 SLP264 60000 T01110006 10111 20083 58016 TSNO
PAEG 182253Z AUTO 34008KT 10SM OVC070 09/01 A3031 RMK AO2 SLP269 T00940006 TSNO
PAEG 182153Z AUTO VRB03KT 10SM SCT047 BKN055 OVC070 10/01 A3033 RMK AO2 RAB43E52 SLP276 P0000 T01000006 TSNO
PAEG 182053Z AUTO 34006KT 10SM OVC060 09/00 A3034 RMK AO2 SLP280 T00940000 56010 TSNO
PAEG 181953Z AUTO VRB04KT 10SM OVC050 09/01 A3035 RMK AO2 SLP283 T00890006 TSNO
PAEG 181853Z AUTO VRB05KT 10SM BKN050 OVC055 09/02 A3036 RMK AO2 SLP287 T00890017 TSNO
PAEG 181753Z AUTO 02006KT 10SM BKN050 OVC090 08/01 A3037 RMK AO2 SLP290 T00830011 10083 20039 58003 TSNO
PAEG 181653Z AUTO 28006KT 10SM BKN050 OVC080 07/03 A3037 RMK AO2 SLP292 T00720033 TSNO
PAEG 181553Z AUTO 00000KT 10SM FEW050 OVC080 06/03 A3038 RMK AO2 SLP293 T00610033 TSNO
PAEG 181453Z AUTO 27003KT 10SM BKN075 OVC085 04/03 A3038 RMK AO2 SLP294 T00440028 58003 TSNO
PAEG 181353Z AUTO 27003KT 10SM OVC070 05/03 A3038 RMK AO2 SLP294 T00500028 TSNO
PAEG 181253Z AUTO 25004KT 10SM SCT038 BKN050 OVC060 04/03 A3038 RMK AO2 SLP296 T00390028 TSNO
PAEG 181153Z AUTO 00000KT 10SM SCT095 BKN110 04/03 A3038 RMK AO2 SLP296 T00440028 10072 20044 55003 TSNO
PAEG 181053Z AUTO 27005KT 10SM BKN060 OVC075 06/03 A3038 RMK AO2 SLP294 T00560033 TSNO
PAEG 180953Z AUTO 26004KT 10SM FEW042 BKN055 OVC065 06/03 A3039 RMK AO2 SLP296 T00560033 TSNO
PAEG 180853Z AUTO 00000KT 10SM SCT047 OVC055 06/03 A3039 RMK AO2 SLP298 T00610028 401110022 56006 TSNO
PAEG 180753Z AUTO 23003KT 10SM OVC090 07/02 A3040 RMK AO2 SLP300 T00670022 TSNO
PAEG 180653Z AUTO 25004KT 10SM FEW041 OVC070 07/03 A3040 RMK AO2 SLP302 T00670028 TSNO
PAEG 180553Z AUTO 00000KT 10SM OVC055 07/02 A3041 RMK AO2 SLP305 T00670022 10111 20067 56007 TSNO
PAEG 180453Z AUTO 33004KT 10SM FEW085 OVC110 09/01 A3042 RMK AO2 SLP307 T00940006 TSNO
PAEG 180353Z AUTO 32004KT 10SM OVC070 10/01 A3042 RMK AO2 SLP308 T01000011 TSNO
PAEG 180253Z AUTO 35003KT 10SM FEW048 OVC070 10/02 A3043 RMK AO2 SLP312 T01000017 58001 TSNO
PAEG 180153Z AUTO 33004KT 10SM OVC070 11/02 A3043 RMK AO2 SLP313 T01060017 TSNO
PAEG 180053Z AUTO 34004KT 10SM BKN070 OVC080 11/01 A3043 RMK AO2 SLP313 T01060006 TSNO
PAEG 172353Z AUTO 33006KT 10SM OVC065 11/01 A3043 RMK AO2 SLP312 T01060006 10111 20078 58001 TSNO
PAEG 172253Z AUTO 36007KT 10SM OVC060 11/00 A3044 RMK AO2 SLP314 T01060000 TSNO
PAEG 172153Z AUTO VRB04KT 10SM OVC060 10/01 A3044 RMK AO2 SLP314 T01000006 TSNO
PAEG 172053Z AUTO 34005KT 10SM OVC065 11/01 A3044 RMK AO2 SLP312 T01060006 51006 TSNO
PAEG 171953Z AUTO VRB04KT 10SM OVC055 09/M01 A3044 RMK AO2 SLP312 T00891011 TSNO
PAEG 171853Z AUTO VRB04KT 10SM BKN060 08/M01 A3043 RMK AO2 SLP309 T00831011 TSNO